Time;durP1;ratioP1;P1;durP2;ratioP2;P2;SDS_P1;SDS_P2;PMS_P1;PMS_P2;Temp;Humidity;BMP_temperature;BMP_pressure;BME280_temperature;BME280_humidity;BME280_pressure;Samples;Min_cycle;Max_cycle;Signal;HPM_P1;HPM_P2
2024/02/04 00:01:55;;;;;;;18.42;4.03;;;;;;;;;;5022343;28;20053;-49
2024/02/04 00:04:23;;;;;;;18.48;3.47;;;;;;;;;;5020146;28;20073;-51
2024/02/04 00:06:50;;;;;;;18.83;3.88;;;;;;;;;;5023911;28;20064;-50
2024/02/04 00:09:18;;;;;;;20.50;3.85;;;;;;;;;;5019413;28;20076;-52
2024/02/04 00:11:45;;;;;;;14.70;3.42;;;;;;;;;;5020938;28;20069;-50
2024/02/04 00:14:11;;;;;;;15.07;3.85;;;;;;;;;;5021240;28;20689;-52
2024/02/04 00:16:38;;;;;;;14.82;3.10;;;;;;;;;;5020963;28;20160;-50
2024/02/04 00:19:04;;;;;;;12.43;3.90;;;;;;;;;;5017773;28;20052;-53
2024/02/04 00:21:31;;;;;;;15.55;4.00;;;;;;;;;;5020335;28;20045;-51
2024/02/04 00:23:57;;;;;;;15.40;3.80;;;;;;;;;;5017720;28;20394;-52
2024/02/04 00:26:24;;;;;;;13.38;3.70;;;;;;;;;;5017725;28;20053;-52
2024/02/04 00:28:50;;;;;;;15.57;3.33;;;;;;;;;;5023471;28;20045;-52
2024/02/04 00:31:17;;;;;;;8.68;2.42;;;;;;;;;;5019388;28;20062;-50
2024/02/04 00:33:43;;;;;;;22.13;3.78;;;;;;;;;;5019144;28;20144;-53
2024/02/04 00:36:10;;;;;;;14.88;3.80;;;;;;;;;;5024853;28;20895;-52
2024/02/04 00:38:36;;;;;;;14.07;3.28;;;;;;;;;;5019332;28;20104;-51
2024/02/04 00:41:03;;;;;;;11.13;3.28;;;;;;;;;;5018954;28;20096;-53
2024/02/04 00:43:30;;;;;;;9.73;2.70;;;;;;;;;;5020549;28;20050;-52
2024/02/04 00:45:56;;;;;;;15.15;3.45;;;;;;;;;;5021642;28;20103;-53
2024/02/04 00:48:23;;;;;;;7.65;2.80;;;;;;;;;;5022331;28;20152;-50
2024/02/04 00:50:50;;;;;;;17.83;4.30;;;;;;;;;;5026603;28;20115;-50
2024/02/04 00:53:16;;;;;;;13.73;3.70;;;;;;;;;;5018590;28;20422;-52
2024/02/04 00:55:42;;;;;;;13.60;3.40;;;;;;;;;;5026985;28;20050;-50
2024/02/04 00:58:09;;;;;;;11.30;3.22;;;;;;;;;;5023617;28;20165;-52
2024/02/04 01:00:35;;;;;;;11.73;2.97;;;;;;;;;;5029922;28;20045;-50
2024/02/04 01:03:02;;;;;;;14.02;3.78;;;;;;;;;;5023553;28;20038;-51
2024/02/04 01:05:28;;;;;;;15.57;3.08;;;;;;;;;;5028085;28;20492;-52
2024/02/04 01:07:55;;;;;;;15.95;3.88;;;;;;;;;;5007121;28;20065;-52
2024/02/04 01:10:21;;;;;;;16.13;3.63;;;;;;;;;;5023258;28;20140;-52
2024/02/04 01:12:47;;;;;;;11.55;3.28;;;;;;;;;;5025240;28;20065;-51
2024/02/04 01:15:15;;;;;;;11.23;3.08;;;;;;;;;;5024695;28;20543;-50
2024/02/04 01:17:42;;;;;;;11.30;2.55;;;;;;;;;;5023048;28;20128;-49
2024/02/04 01:20:08;;;;;;;6.55;2.13;;;;;;;;;;5025015;28;20053;-49
2024/02/04 01:22:35;;;;;;;10.00;3.10;;;;;;;;;;5022537;28;20080;-50
2024/02/04 01:25:01;;;;;;;17.63;3.85;;;;;;;;;;5015721;28;20132;-52
2024/02/04 01:27:28;;;;;;;17.15;3.60;;;;;;;;;;5019097;28;20103;-50
2024/02/04 01:29:56;;;;;;;19.33;3.97;;;;;;;;;;5022609;28;20144;-51
2024/02/04 01:32:23;;;;;;;18.27;3.50;;;;;;;;;;5023336;28;20049;-51
2024/02/04 01:34:49;;;;;;;13.48;3.28;;;;;;;;;;5023987;28;20045;-50
2024/02/04 01:37:15;;;;;;;15.48;4.07;;;;;;;;;;5021430;28;20519;-50
2024/02/04 01:39:42;;;;;;;21.17;4.05;;;;;;;;;;5025996;28;20109;-49
2024/02/04 01:42:08;;;;;;;7.10;2.85;;;;;;;;;;5023330;28;20462;-52
2024/02/04 01:44:35;;;;;;;15.50;2.92;;;;;;;;;;5007840;28;20049;-52
2024/02/04 01:47:03;;;;;;;14.63;3.72;;;;;;;;;;5023963;28;20134;-52
2024/02/04 01:49:30;;;;;;;19.52;4.25;;;;;;;;;;5024267;28;20053;-49
2024/02/04 01:51:57;;;;;;;13.18;2.95;;;;;;;;;;5017636;28;20049;-49
2024/02/04 01:54:23;;;;;;;15.52;3.65;;;;;;;;;;5021272;28;20073;-50
2024/02/04 01:56:51;;;;;;;9.63;3.30;;;;;;;;;;5021181;28;20080;-51
2024/02/04 01:59:19;;;;;;;12.18;2.83;;;;;;;;;;5023776;28;20077;-52
2024/02/04 02:01:46;;;;;;;15.32;3.47;;;;;;;;;;5020459;28;20132;-53
2024/02/04 02:04:13;;;;;;;12.13;3.35;;;;;;;;;;5022405;28;20054;-52
2024/02/04 02:06:43;;;;;;;15.52;3.53;;;;;;;;;;5022387;28;20700;-51
2024/02/04 02:09:12;;;;;;;15.80;3.47;;;;;;;;;;5022150;28;20139;-49
2024/02/04 02:11:45;;;;;;;12.15;2.85;;;;;;;;;;5009991;28;20136;-51
2024/02/04 02:14:14;;;;;;;13.63;2.63;;;;;;;;;;5024645;28;20049;-50
2024/02/04 02:16:42;;;;;;;12.48;2.70;;;;;;;;;;5020203;28;20046;-52
2024/02/04 02:19:27;;;;;;;11.05;3.50;;;;;;;;;;5025234;28;20512;-52
2024/02/04 02:22:02;;;;;;;11.35;2.10;;;;;;;;;;5022844;28;20049;-49
2024/02/04 02:24:32;;;;;;;12.52;3.15;;;;;;;;;;5022921;28;20412;-50
2024/02/04 02:26:59;;;;;;;8.80;2.50;;;;;;;;;;5024880;28;20057;-50
2024/02/04 02:29:25;;;;;;;12.27;3.35;;;;;;;;;;5023561;28;20610;-52
2024/02/04 02:31:52;;;;;;;12.75;2.70;;;;;;;;;;5022442;28;20108;-51
2024/02/04 02:34:18;;;;;;;14.05;3.20;;;;;;;;;;5022154;28;20052;-51
2024/02/04 02:37:09;;;;;;;13.43;3.50;;;;;;;;;;5015586;28;20064;-51
2024/02/04 02:39:42;;;;;;;10.00;2.90;;;;;;;;;;5023936;28;20467;-49
2024/02/04 02:42:09;;;;;;;10.57;2.67;;;;;;;;;;5020199;28;20534;-51
2024/02/04 02:44:37;;;;;;;12.40;2.35;;;;;;;;;;5027508;28;20049;-52
2024/02/04 02:47:05;;;;;;;19.85;5.00;;;;;;;;;;5020078;28;20426;-50
2024/02/04 02:49:31;;;;;;;14.32;2.85;;;;;;;;;;5026674;28;20049;-48
2024/02/04 02:51:58;;;;;;;13.38;2.88;;;;;;;;;;5021758;28;20566;-52
2024/02/04 02:54:24;;;;;;;12.32;2.88;;;;;;;;;;5023668;28;20053;-50
2024/02/04 02:56:51;;;;;;;14.27;3.38;;;;;;;;;;5022252;28;20057;-49
2024/02/04 02:59:17;;;;;;;12.10;3.33;;;;;;;;;;5025109;28;20112;-50
2024/02/04 03:01:44;;;;;;;13.98;2.97;;;;;;;;;;5020636;28;20872;-51
2024/02/04 03:04:10;;;;;;;9.65;2.83;;;;;;;;;;5022237;28;20053;-52
2024/02/04 03:06:37;;;;;;;12.32;3.70;;;;;;;;;;5023259;28;20111;-52
2024/02/04 03:09:03;;;;;;;12.15;3.25;;;;;;;;;;5021737;28;20177;-54
2024/02/04 03:11:30;;;;;;;11.70;3.42;;;;;;;;;;5019814;28;20508;-50
2024/02/04 03:13:56;;;;;;;17.35;3.45;;;;;;;;;;5021961;28;20081;-49
2024/02/04 03:16:23;;;;;;;8.25;1.88;;;;;;;;;;5023224;28;20141;-50
2024/02/04 03:18:49;;;;;;;11.13;2.30;;;;;;;;;;5025016;28;20049;-51
2024/02/04 03:21:16;;;;;;;8.70;2.30;;;;;;;;;;5018297;28;20057;-52
2024/02/04 03:23:42;;;;;;;14.20;2.70;;;;;;;;;;5018461;28;20124;-52
2024/02/04 03:26:16;;;;;;;8.55;2.47;;;;;;;;;;5023936;28;20038;-52
2024/02/04 03:28:42;;;;;;;14.02;3.17;;;;;;;;;;5021708;28;20053;-50
2024/02/04 03:31:09;;;;;;;13.23;3.10;;;;;;;;;;5019759;28;20128;-50
2024/02/04 03:33:35;;;;;;;15.48;3.53;;;;;;;;;;5022899;28;20632;-50
2024/02/04 03:36:02;;;;;;;13.43;2.97;;;;;;;;;;5021455;28;20472;-52
2024/02/04 03:38:28;;;;;;;11.60;2.63;;;;;;;;;;5023234;28;20100;-49
2024/02/04 03:40:54;;;;;;;10.65;2.47;;;;;;;;;;5019016;28;20077;-51
2024/02/04 03:43:21;;;;;;;14.82;3.38;;;;;;;;;;5004941;28;20135;-51
2024/02/04 03:45:48;;;;;;;16.63;2.60;;;;;;;;;;5022593;28;20144;-51
2024/02/04 03:48:14;;;;;;;15.98;3.75;;;;;;;;;;5016733;28;20140;-49
2024/02/04 03:50:41;;;;;;;20.77;2.75;;;;;;;;;;5030023;28;20041;-50
2024/02/04 03:53:07;;;;;;;16.98;3.20;;;;;;;;;;5019348;28;20045;-51
2024/02/04 03:55:34;;;;;;;13.70;3.22;;;;;;;;;;5027372;28;20160;-53
2024/02/04 03:58:00;;;;;;;10.15;2.17;;;;;;;;;;5020752;28;20103;-50
2024/02/04 04:00:27;;;;;;;15.73;1.92;;;;;;;;;;5019763;28;20097;-52
2024/02/04 04:02:53;;;;;;;13.20;2.78;;;;;;;;;;5018064;28;20136;-51
2024/02/04 04:05:20;;;;;;;16.20;3.92;;;;;;;;;;5020802;28;20045;-52
2024/02/04 04:07:47;;;;;;;13.73;2.25;;;;;;;;;;5021819;28;20045;-51
2024/02/04 04:10:13;;;;;;;17.40;3.40;;;;;;;;;;5021388;28;20048;-50
2024/02/04 04:12:39;;;;;;;10.30;2.30;;;;;;;;;;5025682;28;20385;-50
2024/02/04 04:15:06;;;;;;;11.27;2.38;;;;;;;;;;5021020;28;20149;-61
2024/02/04 04:17:32;;;;;;;13.70;2.53;;;;;;;;;;5028314;28;20060;-50
2024/02/04 04:19:59;;;;;;;16.15;3.03;;;;;;;;;;5021055;28;20052;-52
2024/02/04 04:22:25;;;;;;;11.20;2.10;;;;;;;;;;5021770;28;20049;-50
2024/02/04 04:24:52;;;;;;;19.65;3.10;;;;;;;;;;5014733;28;20045;-50
2024/02/04 04:27:18;;;;;;;12.88;2.25;;;;;;;;;;5021923;28;20420;-53
2024/02/04 04:29:45;;;;;;;15.32;3.20;;;;;;;;;;5022447;28;20504;-52
2024/02/04 04:32:11;;;;;;;15.23;3.72;;;;;;;;;;5025186;28;20081;-51
2024/02/04 04:34:38;;;;;;;10.48;1.90;;;;;;;;;;5026901;28;20435;-52
2024/02/04 04:37:04;;;;;;;12.07;2.70;;;;;;;;;;5024533;28;20385;-51
2024/02/04 04:39:30;;;;;;;18.90;3.90;;;;;;;;;;5027639;28;20145;-52
2024/02/04 04:41:57;;;;;;;18.38;4.07;;;;;;;;;;5023493;28;20045;-50
2024/02/04 04:44:23;;;;;;;24.10;4.13;;;;;;;;;;5026215;28;20529;-52
2024/02/04 04:46:50;;;;;;;27.50;4.20;;;;;;;;;;5024625;28;20065;-52
2024/02/04 04:49:16;;;;;;;19.63;3.33;;;;;;;;;;5026188;28;20426;-49
2024/02/04 04:51:46;;;;;;;17.80;3.70;;;;;;;;;;5023692;28;20053;-51
2024/02/04 04:54:13;;;;;;;15.52;3.60;;;;;;;;;;5026995;28;20053;-51
2024/02/04 04:56:39;;;;;;;24.88;4.32;;;;;;;;;;5023334;28;20823;-52
2024/02/04 04:59:08;;;;;;;17.15;3.03;;;;;;;;;;5025192;28;20136;-49
2024/02/04 05:01:35;;;;;;;15.77;3.92;;;;;;;;;;5023669;28;20128;-52
2024/02/04 05:04:02;;;;;;;15.25;3.35;;;;;;;;;;5024203;28;20511;-50
2024/02/04 05:06:28;;;;;;;14.70;3.47;;;;;;;;;;5023490;28;20046;-51
2024/02/04 05:08:55;;;;;;;12.68;2.80;;;;;;;;;;5025490;28;20502;-51
2024/02/04 05:11:21;;;;;;;11.48;3.50;;;;;;;;;;5027696;28;20041;-49
2024/02/04 05:13:47;;;;;;;15.70;4.20;;;;;;;;;;5020774;28;20047;-52
2024/02/04 05:16:14;;;;;;;22.40;3.20;;;;;;;;;;5025425;28;20041;-52
2024/02/04 05:18:40;;;;;;;9.68;2.40;;;;;;;;;;5027054;28;20053;-52
2024/02/04 05:21:07;;;;;;;10.52;2.47;;;;;;;;;;5023720;28;20052;-50
2024/02/04 05:23:34;;;;;;;10.52;3.45;;;;;;;;;;5023672;28;20471;-51
2024/02/04 05:26:04;;;;;;;15.40;3.78;;;;;;;;;;5007463;28;20506;-49
2024/02/04 05:28:31;;;;;;;15.13;3.95;;;;;;;;;;5024702;28;20044;-50
2024/02/04 05:30:58;;;;;;;14.05;2.80;;;;;;;;;;5023833;28;20140;-51
2024/02/04 05:33:24;;;;;;;14.77;3.45;;;;;;;;;;5023433;28;20153;-49
2024/02/04 05:35:51;;;;;;;9.48;2.58;;;;;;;;;;5033146;28;20053;-51
2024/02/04 05:38:17;;;;;;;12.68;3.13;;;;;;;;;;5027731;28;20055;-52
2024/02/04 05:40:43;;;;;;;19.75;3.63;;;;;;;;;;5023227;28;20134;-49
2024/02/04 05:43:10;;;;;;;13.02;3.15;;;;;;;;;;5023350;28;20092;-51
2024/02/04 05:45:40;;;;;;;21.65;4.35;;;;;;;;;;5024001;28;20124;-52
2024/02/04 05:48:07;;;;;;;13.75;3.58;;;;;;;;;;5025126;28;20069;-50
2024/02/04 05:50:34;;;;;;;14.80;2.55;;;;;;;;;;5022144;28;20049;-51
2024/02/04 05:53:01;;;;;;;15.48;2.75;;;;;;;;;;5023792;28;20050;-52
2024/02/04 05:55:27;;;;;;;15.48;3.47;;;;;;;;;;5026215;28;20076;-52
2024/02/04 05:57:53;;;;;;;12.52;2.58;;;;;;;;;;5023744;28;20109;-52
2024/02/04 06:00:20;;;;;;;7.95;2.55;;;;;;;;;;5024410;28;20507;-51
2024/02/04 06:02:47;;;;;;;14.52;2.80;;;;;;;;;;5024324;28;20050;-53
2024/02/04 06:05:13;;;;;;;12.90;2.83;;;;;;;;;;5022573;28;20041;-52
2024/02/04 06:07:42;;;;;;;10.55;2.42;;;;;;;;;;5022108;28;20096;-52
2024/02/04 06:10:08;;;;;;;12.43;2.47;;;;;;;;;;5024287;28;20140;-50
2024/02/04 06:12:35;;;;;;;8.35;2.70;;;;;;;;;;5020137;28;20080;-53
2024/02/04 06:15:02;;;;;;;9.18;2.25;;;;;;;;;;5022037;28;20053;-53
2024/02/04 06:17:28;;;;;;;9.13;2.28;;;;;;;;;;5026399;28;20053;-51
2024/02/04 06:19:54;;;;;;;9.07;1.98;;;;;;;;;;5025472;28;20104;-50
2024/02/04 06:22:22;;;;;;;9.38;1.40;;;;;;;;;;5029657;28;20043;-51
2024/02/04 06:24:49;;;;;;;7.20;1.85;;;;;;;;;;5019841;28;20068;-51
2024/02/04 06:27:16;;;;;;;11.70;1.85;;;;;;;;;;5021725;28;20033;-51
2024/02/04 06:29:42;;;;;;;7.45;1.73;;;;;;;;;;5021810;28;20049;-54
2024/02/04 06:32:09;;;;;;;6.25;1.45;;;;;;;;;;5023144;28;20074;-53
2024/02/04 06:34:36;;;;;;;8.68;2.10;;;;;;;;;;5028257;28;20041;-52
2024/02/04 06:37:03;;;;;;;5.13;1.42;;;;;;;;;;5021354;28;20084;-52
2024/02/04 06:39:30;;;;;;;6.75;1.25;;;;;;;;;;5023349;28;20038;-52
2024/02/04 06:41:56;;;;;;;10.25;2.50;;;;;;;;;;5019727;28;20312;-52
2024/02/04 06:44:23;;;;;;;9.48;1.77;;;;;;;;;;5024074;28;20550;-54
2024/02/04 06:46:49;;;;;;;12.10;1.63;;;;;;;;;;5023354;28;20136;-51
2024/02/04 06:49:18;;;;;;;14.07;2.63;;;;;;;;;;5025398;28;20065;-51
2024/02/04 06:51:45;;;;;;;8.40;2.75;;;;;;;;;;5019306;28;20125;-50
2024/02/04 06:54:11;;;;;;;5.18;1.67;;;;;;;;;;5022971;28;20045;-53
2024/02/04 06:56:38;;;;;;;6.90;1.95;;;;;;;;;;5020610;28;20120;-51
2024/02/04 06:59:05;;;;;;;6.95;2.25;;;;;;;;;;5023525;28;20397;-49
2024/02/04 07:01:32;;;;;;;6.82;2.05;;;;;;;;;;5022285;28;20048;-49
2024/02/04 07:03:58;;;;;;;9.10;1.50;;;;;;;;;;5021229;28;20504;-51
2024/02/04 07:06:25;;;;;;;10.13;1.80;;;;;;;;;;5023625;28;20049;-50
2024/02/04 07:08:51;;;;;;;4.20;1.40;;;;;;;;;;5023133;28;20625;-53
2024/02/04 07:11:18;;;;;;;7.25;1.20;;;;;;;;;;5024786;28;20495;-49
2024/02/04 07:13:44;;;;;;;10.90;1.63;;;;;;;;;;5020715;28;20069;-52
2024/02/04 07:16:10;;;;;;;7.03;2.22;;;;;;;;;;5003679;28;20555;-50
2024/02/04 07:18:37;;;;;;;15.18;2.42;;;;;;;;;;5022541;28;20057;-51
2024/02/04 07:21:04;;;;;;;11.35;2.20;;;;;;;;;;5017992;28;20054;-49
2024/02/04 07:23:30;;;;;;;5.05;2.00;;;;;;;;;;5016583;28;21646;-52
2024/02/04 07:25:57;;;;;;;9.02;1.85;;;;;;;;;;5022546;28;20152;-51
2024/02/04 07:28:23;;;;;;;8.30;1.88;;;;;;;;;;5021667;28;20119;-52
2024/02/04 07:30:50;;;;;;;5.63;1.40;;;;;;;;;;5022249;28;20049;-53
2024/02/04 07:33:16;;;;;;;11.27;2.00;;;;;;;;;;5028001;28;20041;-51
2024/02/04 07:35:43;;;;;;;8.50;1.85;;;;;;;;;;5029335;28;20049;-52
2024/02/04 07:38:09;;;;;;;6.78;1.80;;;;;;;;;;5018144;28;20419;-53
2024/02/04 07:40:35;;;;;;;10.48;1.40;;;;;;;;;;5016089;28;20683;-52
2024/02/04 07:43:02;;;;;;;7.80;1.92;;;;;;;;;;5022534;28;20685;-50
2024/02/04 07:45:28;;;;;;;7.10;1.70;;;;;;;;;;5021792;28;20050;-50
2024/02/04 07:47:55;;;;;;;7.50;2.00;;;;;;;;;;5025084;28;20136;-50
2024/02/04 07:50:21;;;;;;;6.30;1.35;;;;;;;;;;5004239;28;20049;-51
2024/02/04 07:52:49;;;;;;;10.82;1.65;;;;;;;;;;5021556;28;20053;-51
2024/02/04 07:55:15;;;;;;;7.55;1.30;;;;;;;;;;5020028;28;20057;-51
2024/02/04 07:57:41;;;;;;;5.90;1.25;;;;;;;;;;5023438;28;20045;-49
2024/02/04 08:00:10;;;;;;;3.95;1.10;;;;;;;;;;5022636;28;20049;-51
2024/02/04 08:02:39;;;;;;;4.90;1.20;;;;;;;;;;5020228;28;20324;-53
2024/02/04 08:05:06;;;;;;;6.78;0.90;;;;;;;;;;5024179;28;20073;-52
2024/02/04 08:07:33;;;;;;;5.82;1.23;;;;;;;;;;5025873;28;20050;-51
2024/02/04 08:09:59;;;;;;;7.45;1.20;;;;;;;;;;5028963;28;20045;-50
2024/02/04 08:12:26;;;;;;;10.27;1.65;;;;;;;;;;5026284;28;20049;-52
2024/02/04 08:14:52;;;;;;;6.72;1.60;;;;;;;;;;5020395;28;20045;-50
2024/02/04 08:17:19;;;;;;;7.97;1.30;;;;;;;;;;5020315;28;20128;-50
2024/02/04 08:19:46;;;;;;;4.20;0.82;;;;;;;;;;5030409;28;20068;-50
2024/02/04 08:22:12;;;;;;;4.45;1.10;;;;;;;;;;5025584;28;20052;-51
2024/02/04 08:24:39;;;;;;;8.73;1.20;;;;;;;;;;5025891;28;20049;-52
2024/02/04 08:27:06;;;;;;;6.82;1.25;;;;;;;;;;5027544;28;20053;-51
2024/02/04 08:29:32;;;;;;;7.47;0.93;;;;;;;;;;5023804;28;20056;-51
2024/02/04 08:31:59;;;;;;;7.50;0.95;;;;;;;;;;5024373;28;20136;-51
2024/02/04 08:34:25;;;;;;;4.38;1.15;;;;;;;;;;5007423;28;20084;-50
2024/02/04 08:36:52;;;;;;;9.65;1.55;;;;;;;;;;5024909;28;20053;-50
2024/02/04 08:39:19;;;;;;;4.13;0.60;;;;;;;;;;5024020;28;20049;-52
2024/02/04 08:41:45;;;;;;;5.18;1.10;;;;;;;;;;5023764;28;20114;-50
2024/02/04 08:44:12;;;;;;;3.22;1.02;;;;;;;;;;5018882;28;20049;-51
2024/02/04 08:46:52;;;;;;;3.67;0.90;;;;;;;;;;5023912;28;20050;-52
2024/02/04 08:49:18;;;;;;;6.03;0.88;;;;;;;;;;5021637;28;20100;-51
2024/02/04 08:51:45;;;;;;;5.47;0.85;;;;;;;;;;5021898;28;20128;-51
2024/02/04 08:54:12;;;;;;;9.38;1.23;;;;;;;;;;5026310;28;20111;-49
2024/02/04 08:56:38;;;;;;;5.07;0.90;;;;;;;;;;5025602;28;20046;-50
2024/02/04 08:59:06;;;;;;;4.55;1.05;;;;;;;;;;5022714;28;20452;-48
2024/02/04 09:01:32;;;;;;;7.13;1.02;;;;;;;;;;5022559;28;20537;-50
2024/02/04 09:03:59;;;;;;;1.95;0.50;;;;;;;;;;5024879;28;20752;-49
2024/02/04 09:06:25;;;;;;;5.10;1.00;;;;;;;;;;5024919;28;20183;-50
2024/02/04 09:08:52;;;;;;;4.40;0.73;;;;;;;;;;5025855;28;20072;-49
2024/02/04 09:11:18;;;;;;;5.18;0.75;;;;;;;;;;5023573;28;20404;-51
2024/02/04 09:13:45;;;;;;;5.07;0.80;;;;;;;;;;5026413;28;20049;-50
2024/02/04 09:16:12;;;;;;;5.53;0.93;;;;;;;;;;5025021;28;20096;-50
2024/02/04 09:18:38;;;;;;;2.38;0.68;;;;;;;;;;5021196;28;20045;-50
2024/02/04 09:21:05;;;;;;;2.20;0.57;;;;;;;;;;5024948;28;20076;-51
2024/02/04 09:23:32;;;;;;;5.93;1.00;;;;;;;;;;5026360;28;20125;-50
2024/02/04 09:25:58;;;;;;;5.40;0.80;;;;;;;;;;5029526;28;20057;-50
2024/02/04 09:28:24;;;;;;;2.97;0.40;;;;;;;;;;5023466;28;20069;-50
2024/02/04 09:30:51;;;;;;;2.65;0.60;;;;;;;;;;5027572;28;20049;-51
2024/02/04 09:33:18;;;;;;;5.05;0.88;;;;;;;;;;5023976;28;20084;-53
2024/02/04 09:35:46;;;;;;;1.92;0.50;;;;;;;;;;5021670;28;20456;-52
2024/02/04 09:38:13;;;;;;;3.03;0.50;;;;;;;;;;5024338;28;20057;-49
2024/02/04 09:40:40;;;;;;;2.17;0.55;;;;;;;;;;5023420;28;20052;-51
2024/02/04 09:43:07;;;;;;;2.35;0.70;;;;;;;;;;5027290;28;20048;-50
2024/02/04 09:45:34;;;;;;;4.75;0.50;;;;;;;;;;5024267;28;20400;-49
2024/02/04 09:48:01;;;;;;;7.57;1.10;;;;;;;;;;5023667;28;20104;-49
2024/02/04 09:50:28;;;;;;;2.67;0.65;;;;;;;;;;5022531;28;20129;-51
2024/02/04 09:52:57;;;;;;;4.90;1.30;;;;;;;;;;5025489;28;20045;-49
2024/02/04 09:55:25;;;;;;;4.15;1.10;;;;;;;;;;5024994;28;20053;-49
2024/02/04 09:57:51;;;;;;;4.80;1.27;;;;;;;;;;5025199;28;20053;-50
2024/02/04 10:00:19;;;;;;;4.40;0.98;;;;;;;;;;5025475;28;20053;-52
2024/02/04 10:02:47;;;;;;;2.30;0.75;;;;;;;;;;5018437;28;20045;-51
2024/02/04 10:05:14;;;;;;;5.30;1.35;;;;;;;;;;5023014;28;20642;-50
2024/02/04 10:07:41;;;;;;;8.32;1.10;;;;;;;;;;5004473;28;20496;-51
2024/02/04 10:10:08;;;;;;;5.53;1.10;;;;;;;;;;5024950;28;20144;-51
2024/02/04 10:12:35;;;;;;;9.60;1.55;;;;;;;;;;5024843;28;20128;-52
2024/02/04 10:15:03;;;;;;;3.65;0.85;;;;;;;;;;5022971;28;20181;-52
2024/02/04 10:17:32;;;;;;;6.90;1.10;;;;;;;;;;5028404;28;20077;-51
2024/02/04 10:20:00;;;;;;;5.03;0.90;;;;;;;;;;5019621;28;20054;-51
2024/02/04 10:22:27;;;;;;;5.35;0.90;;;;;;;;;;5024169;28;20452;-53
2024/02/04 10:24:54;;;;;;;5.05;1.10;;;;;;;;;;5023279;28;20069;-50
2024/02/04 10:27:20;;;;;;;4.53;1.00;;;;;;;;;;5023119;28;20718;-51
2024/02/04 10:29:57;;;;;;;7.22;0.82;;;;;;;;;;5023480;28;20050;-52
2024/02/04 10:32:24;;;;;;;5.05;0.90;;;;;;;;;;5022551;28;20041;-50
2024/02/04 10:34:51;;;;;;;4.32;0.73;;;;;;;;;;5024152;28;20053;-51
2024/02/04 10:37:17;;;;;;;5.20;1.00;;;;;;;;;;5022321;28;20716;-53
2024/02/04 10:39:44;;;;;;;4.45;0.95;;;;;;;;;;5021941;28;20104;-54
2024/02/04 10:42:13;;;;;;;3.97;0.68;;;;;;;;;;5026317;28;20051;-52
2024/02/04 10:44:41;;;;;;;6.00;1.17;;;;;;;;;;5022726;28;20567;-51
2024/02/04 10:47:17;;;;;;;6.15;1.20;;;;;;;;;;5019877;28;20053;-53
2024/02/04 10:49:49;;;;;;;5.40;1.00;;;;;;;;;;5021090;28;20049;-51
2024/02/04 10:52:17;;;;;;;8.50;1.17;;;;;;;;;;5021616;28;20115;-50
2024/02/04 10:54:44;;;;;;;5.93;1.23;;;;;;;;;;5019889;28;20047;-51
2024/02/04 10:57:12;;;;;;;6.13;1.00;;;;;;;;;;5023750;28;20470;-50
2024/02/04 10:59:39;;;;;;;6.90;1.13;;;;;;;;;;5022747;28;20041;-50
2024/02/04 11:02:06;;;;;;;3.85;0.80;;;;;;;;;;5022624;28;20484;-54
2024/02/04 11:04:34;;;;;;;7.15;1.00;;;;;;;;;;5025056;28;20472;-52
2024/02/04 11:07:01;;;;;;;9.75;1.42;;;;;;;;;;5004716;28;20060;-53
2024/02/04 11:09:28;;;;;;;4.80;0.95;;;;;;;;;;5002954;28;20431;-51
2024/02/04 11:11:59;;;;;;;6.68;1.17;;;;;;;;;;5022285;28;20153;-49
2024/02/04 11:14:26;;;;;;;9.38;1.40;;;;;;;;;;5024577;28;20415;-51
2024/02/04 11:17:17;;;;;;;7.97;1.27;;;;;;;;;;5018457;28;20418;-50
2024/02/04 11:19:50;;;;;;;11.13;1.48;;;;;;;;;;5021084;28;20049;-54
2024/02/04 11:22:36;;;;;;;7.45;1.10;;;;;;;;;;5023597;28;20060;-50
2024/02/04 11:25:02;;;;;;;7.70;1.27;;;;;;;;;;5022463;28;20104;-51
2024/02/04 11:27:29;;;;;;;3.85;0.90;;;;;;;;;;5019592;28;20557;-49
2024/02/04 11:29:56;;;;;;;8.00;1.73;;;;;;;;;;5025097;28;20412;-50
2024/02/04 11:32:23;;;;;;;9.15;1.35;;;;;;;;;;5017266;28;20125;-52
2024/02/04 11:34:50;;;;;;;9.80;1.42;;;;;;;;;;5022955;28;20148;-51
2024/02/04 11:37:19;;;;;;;5.22;1.13;;;;;;;;;;5002919;28;20160;-51
2024/02/04 11:39:53;;;;;;;4.82;1.08;;;;;;;;;;5019221;28;20392;-50
2024/02/04 11:42:20;;;;;;;6.38;1.38;;;;;;;;;;5023072;28;20104;-51
2024/02/04 11:44:47;;;;;;;7.90;1.48;;;;;;;;;;5020718;28;20069;-49
2024/02/04 11:47:26;;;;;;;6.45;1.33;;;;;;;;;;5020051;28;20065;-50
2024/02/04 11:49:58;;;;;;;6.18;1.40;;;;;;;;;;5022500;28;20045;-51
2024/02/04 11:52:28;;;;;;;4.45;1.17;;;;;;;;;;5019413;28;20769;-52
2024/02/04 11:54:55;;;;;;;8.13;1.25;;;;;;;;;;5022419;28;20054;-49
2024/02/04 11:57:22;;;;;;;8.15;1.25;;;;;;;;;;5023897;28;20074;-52
2024/02/04 11:59:50;;;;;;;6.75;1.00;;;;;;;;;;5025568;28;20093;-50
2024/02/04 12:02:17;;;;;;;3.30;0.90;;;;;;;;;;5021034;28;20057;-49
2024/02/04 12:04:47;;;;;;;4.57;1.23;;;;;;;;;;5023129;28;20042;-49
2024/02/04 12:07:14;;;;;;;6.90;1.35;;;;;;;;;;5020266;28;20858;-50
2024/02/04 12:09:41;;;;;;;4.97;1.55;;;;;;;;;;5022261;28;20412;-52
2024/02/04 12:12:08;;;;;;;8.40;1.25;;;;;;;;;;5021716;28;20049;-50
2024/02/04 12:14:35;;;;;;;4.32;1.13;;;;;;;;;;5021228;28;20148;-50
2024/02/04 12:17:09;;;;;;;7.07;1.02;;;;;;;;;;5028015;28;20086;-50
2024/02/04 12:19:38;;;;;;;10.43;1.33;;;;;;;;;;4988020;28;20080;-50
2024/02/04 12:22:10;;;;;;;8.63;1.10;;;;;;;;;;5020768;28;20520;-53
2024/02/04 12:24:37;;;;;;;6.90;1.17;;;;;;;;;;5021784;28;20045;-50
2024/02/04 12:27:04;;;;;;;11.05;1.77;;;;;;;;;;5023910;28;20054;-52
2024/02/04 12:29:31;;;;;;;7.93;0.98;;;;;;;;;;5021504;28;20057;-49
2024/02/04 12:32:01;;;;;;;3.50;0.88;;;;;;;;;;5020570;28;20455;-51
2024/02/04 12:34:27;;;;;;;5.07;1.30;;;;;;;;;;5023378;28;20081;-52
2024/02/04 12:37:00;;;;;;;3.75;0.85;;;;;;;;;;5018397;28;20046;-49
2024/02/04 12:39:27;;;;;;;13.32;2.88;;;;;;;;;;5021628;28;20073;-51
2024/02/04 12:41:54;;;;;;;5.72;1.45;;;;;;;;;;5022331;28;20452;-49
2024/02/04 12:44:21;;;;;;;8.55;1.23;;;;;;;;;;5023204;28;20736;-51
2024/02/04 12:46:51;;;;;;;8.88;1.52;;;;;;;;;;5018975;28;20104;-50
2024/02/04 12:49:24;;;;;;;5.95;1.40;;;;;;;;;;5022586;28;20041;-49
2024/02/04 12:51:55;;;;;;;10.00;1.70;;;;;;;;;;5023455;28;20061;-50
2024/02/04 12:54:22;;;;;;;6.38;1.30;;;;;;;;;;5027022;28;20096;-49
2024/02/04 12:56:51;;;;;;;13.10;1.48;;;;;;;;;;5007673;28;20049;-49
2024/02/04 12:59:25;;;;;;;7.40;1.30;;;;;;;;;;5025895;28;20518;-51
2024/02/04 13:01:55;;;;;;;7.07;1.25;;;;;;;;;;5025212;28;20041;-50
2024/02/04 13:04:22;;;;;;;9.50;1.35;;;;;;;;;;5022766;28;20049;-50
2024/02/04 13:06:48;;;;;;;5.55;1.30;;;;;;;;;;5024038;28;20515;-50
2024/02/04 13:09:15;;;;;;;7.20;1.88;;;;;;;;;;5026669;28;20917;-49
2024/02/04 13:11:42;;;;;;;7.72;1.30;;;;;;;;;;5005938;28;20048;-49
2024/02/04 13:14:10;;;;;;;7.22;1.00;;;;;;;;;;5027716;28;20072;-51
2024/02/04 13:16:37;;;;;;;9.75;1.52;;;;;;;;;;5024882;28;20073;-48
2024/02/04 13:19:04;;;;;;;8.50;1.30;;;;;;;;;;5029013;28;20057;-49
2024/02/04 13:21:31;;;;;;;12.43;1.45;;;;;;;;;;5023794;28;20053;-49
2024/02/04 13:23:57;;;;;;;6.53;0.90;;;;;;;;;;5032953;28;20040;-52
2024/02/04 13:26:24;;;;;;;6.40;0.95;;;;;;;;;;5029989;28;20085;-50
2024/02/04 13:28:50;;;;;;;5.35;1.10;;;;;;;;;;5028732;28;20680;-48
2024/02/04 13:31:16;;;;;;;13.77;1.73;;;;;;;;;;5020777;28;20049;-51
2024/02/04 13:33:43;;;;;;;4.82;1.05;;;;;;;;;;5025490;28;20049;-48
2024/02/04 13:36:10;;;;;;;6.35;1.05;;;;;;;;;;5008191;28;20049;-49
2024/02/04 13:38:37;;;;;;;9.27;1.45;;;;;;;;;;5028505;28;20136;-53
2024/02/04 13:41:07;;;;;;;9.52;2.08;;;;;;;;;;5027330;28;20523;-50
2024/02/04 13:43:34;;;;;;;10.38;1.42;;;;;;;;;;5022693;28;20057;-50
2024/02/04 13:46:01;;;;;;;9.23;1.45;;;;;;;;;;5024997;28;20493;-51
2024/02/04 13:48:28;;;;;;;7.57;1.85;;;;;;;;;;5022258;28;20389;-49
2024/02/04 13:50:55;;;;;;;5.07;1.15;;;;;;;;;;5019594;28;20136;-54
2024/02/04 13:53:21;;;;;;;7.68;1.48;;;;;;;;;;5016922;28;20120;-51
2024/02/04 13:55:49;;;;;;;9.68;1.83;;;;;;;;;;5021291;28;21251;-52
2024/02/04 13:58:18;;;;;;;9.57;1.63;;;;;;;;;;5019816;28;20495;-51
2024/02/04 14:00:45;;;;;;;11.48;1.40;;;;;;;;;;5024089;28;20063;-51
2024/02/04 14:03:13;;;;;;;10.25;1.67;;;;;;;;;;5024492;28;20469;-53
2024/02/04 14:05:39;;;;;;;8.43;1.80;;;;;;;;;;5021028;28;20037;-54
2024/02/04 14:08:06;;;;;;;12.60;1.98;;;;;;;;;;5022229;28;20415;-53
2024/02/04 14:10:33;;;;;;;12.38;1.70;;;;;;;;;;5020649;28;20400;-54
2024/02/04 14:12:59;;;;;;;11.05;1.85;;;;;;;;;;5024509;28;20042;-52
2024/02/04 14:15:26;;;;;;;10.48;1.80;;;;;;;;;;5019236;28;20399;-54
2024/02/04 14:17:52;;;;;;;9.35;1.65;;;;;;;;;;5024592;28;20089;-52
2024/02/04 14:20:19;;;;;;;10.75;1.75;;;;;;;;;;5024255;28;20053;-52
2024/02/04 14:22:45;;;;;;;9.55;2.10;;;;;;;;;;5020210;28;20147;-50
2024/02/04 14:25:12;;;;;;;10.18;2.03;;;;;;;;;;5027028;28;20112;-51
2024/02/04 14:27:39;;;;;;;9.27;1.58;;;;;;;;;;5024176;28;20122;-50
2024/02/04 14:30:06;;;;;;;6.88;1.45;;;;;;;;;;5025320;28;20402;-52
2024/02/04 14:32:33;;;;;;;9.13;1.73;;;;;;;;;;5022490;28;21769;-54
2024/02/04 14:34:59;;;;;;;11.30;2.55;;;;;;;;;;5023996;28;20054;-51
2024/02/04 14:37:26;;;;;;;8.98;1.75;;;;;;;;;;5026747;28;20052;-54